createdAt,value
2019-04-03T00:00:07.814Z,16.30
2019-04-03T00:02:36.652Z,16.20
2019-04-03T00:05:07.728Z,16.20
2019-04-03T00:07:36.545Z,16.20
2019-04-03T00:10:08.511Z,16.20
2019-04-03T00:12:40.342Z,16.10
2019-04-03T00:15:08.474Z,16.10
2019-04-03T00:17:37.235Z,16.10
2019-04-03T00:20:07.671Z,16.10
2019-04-03T00:22:38.029Z,16.00
2019-04-03T00:25:07.826Z,16.10
2019-04-03T00:27:36.876Z,16.10
2019-04-03T00:30:07.842Z,16.10
2019-04-03T00:32:36.930Z,16.20
2019-04-03T00:35:08.134Z,16.20
2019-04-03T00:37:37.223Z,16.30
2019-04-03T00:40:07.768Z,16.10
2019-04-03T00:42:36.622Z,16.10
2019-04-03T00:45:07.300Z,16.10
2019-04-03T00:47:36.231Z,16.10
2019-04-03T00:50:07.071Z,16.20
2019-04-03T00:52:35.940Z,16.10
2019-04-03T00:55:05.680Z,16.10
2019-04-03T00:57:34.537Z,16.00
2019-04-03T01:00:04.835Z,15.90
2019-04-03T01:02:33.896Z,15.80
2019-04-03T01:05:03.417Z,15.80
2019-04-03T01:07:32.320Z,16.00
2019-04-03T01:10:01.162Z,16.00
2019-04-03T01:12:31.270Z,16.00
2019-04-03T01:15:01.550Z,16.00
2019-04-03T01:17:31.072Z,16.00
2019-04-03T01:19:59.893Z,16.00
2019-04-03T01:22:28.766Z,16.00
2019-04-03T01:24:57.616Z,16.00
2019-04-03T01:27:26.526Z,15.90
2019-04-03T01:29:55.398Z,15.90
2019-04-03T01:32:24.240Z,15.90
2019-04-03T01:34:53.211Z,15.80
2019-04-03T01:37:22.146Z,15.90
2019-04-03T01:39:51.300Z,15.90
2019-04-03T01:42:22.158Z,15.90
2019-04-03T01:44:50.836Z,15.90
2019-04-03T01:47:19.681Z,15.90
2019-04-03T01:49:48.549Z,15.90
2019-04-03T01:52:17.373Z,15.80
2019-04-03T01:54:46.247Z,15.80
2019-04-03T01:57:15.093Z,15.80
2019-04-03T01:59:43.896Z,15.80
2019-04-03T02:02:12.907Z,15.90
2019-04-03T02:04:42.672Z,15.80
2019-04-03T02:07:14.196Z,15.80
2019-04-03T02:09:42.342Z,15.80
2019-04-03T02:12:11.177Z,15.70
2019-04-03T02:14:40.001Z,15.70
2019-04-03T02:17:09.014Z,15.70
2019-04-03T02:19:37.997Z,15.60
2019-04-03T02:22:06.879Z,15.50
2019-04-03T02:24:35.673Z,15.50
2019-04-03T02:27:04.539Z,15.50
2019-04-03T02:29:33.372Z,15.50
2019-04-03T02:32:02.234Z,15.50
2019-04-03T02:34:33.663Z,15.60
2019-04-03T02:37:01.588Z,15.60
2019-04-03T02:39:30.427Z,15.60
2019-04-03T02:41:59.480Z,15.60
2019-04-03T02:44:28.515Z,15.60
2019-04-03T02:47:00.243Z,15.50
2019-04-03T02:49:27.833Z,15.50
2019-04-03T02:51:57.174Z,15.50
2019-04-03T02:54:34.660Z,15.40
2019-04-03T02:57:01.668Z,15.30
2019-04-03T02:59:30.519Z,15.30
2019-04-03T03:01:59.451Z,15.30
2019-04-03T03:04:28.622Z,15.30
2019-04-03T03:06:57.455Z,15.30
2019-04-03T03:09:26.827Z,15.30
2019-04-03T03:11:57.006Z,15.30
2019-04-03T03:14:26.427Z,15.30
2019-04-03T03:16:55.645Z,15.30
2019-04-03T03:19:25.003Z,15.30
2019-04-03T03:21:57.086Z,15.20
2019-04-03T03:24:29.390Z,15.20
2019-04-03T03:26:59.460Z,15.20
2019-04-03T03:29:29.388Z,15.20
2019-04-03T03:32:10.782Z,15.10
2019-04-03T03:34:48.246Z,15.10
2019-04-03T03:37:03.129Z,15.10
2019-04-03T03:39:30.687Z,15.10
2019-04-03T03:42:00.574Z,15.00
2019-04-03T03:44:30.088Z,14.90
2019-04-03T03:47:00.987Z,14.80
2019-04-03T03:49:30.491Z,14.70
2019-04-03T03:52:03.965Z,14.70
2019-04-03T03:54:32.020Z,14.60
2019-04-03T03:57:04.827Z,14.70
2019-04-03T03:59:33.949Z,14.60
2019-04-03T04:02:05.286Z,14.50
2019-04-03T04:04:33.773Z,14.60
2019-04-03T04:07:04.538Z,14.60
2019-04-03T04:09:33.513Z,14.60
2019-04-03T04:12:06.069Z,14.60
2019-04-03T04:14:33.346Z,14.60
2019-04-03T04:17:02.202Z,14.50
2019-04-03T04:19:31.674Z,14.50
2019-04-03T04:22:01.186Z,14.50
2019-04-03T04:24:30.172Z,14.50
2019-04-03T04:27:00.856Z,14.50
2019-04-03T04:29:31.014Z,14.50
2019-04-03T04:31:59.930Z,14.50
2019-04-03T04:34:28.767Z,14.40
2019-04-03T04:36:57.699Z,14.30
2019-04-03T04:39:28.449Z,14.30
2019-04-03T04:41:57.168Z,14.30
2019-04-03T04:44:26.053Z,14.30
2019-04-03T04:46:54.924Z,14.30
2019-04-03T04:49:23.732Z,14.40
2019-04-03T04:51:52.592Z,14.30
2019-04-03T04:54:21.410Z,14.30
2019-04-03T04:56:50.161Z,14.30
2019-04-03T04:59:19.033Z,14.20
2019-04-03T05:01:49.152Z,14.20
2019-04-03T05:04:18.514Z,14.20
2019-04-03T05:06:47.353Z,14.20
2019-04-03T05:09:16.215Z,14.20
2019-04-03T05:11:45.046Z,14.20
2019-04-03T05:14:13.946Z,14.30
2019-04-03T05:16:42.802Z,14.30
2019-04-03T05:19:17.939Z,14.30
2019-04-03T05:21:42.141Z,14.40
2019-04-03T05:24:13.596Z,14.30
2019-04-03T05:26:41.628Z,14.30
2019-04-03T05:29:10.734Z,14.30
2019-04-03T05:31:40.070Z,14.30
2019-04-03T05:34:09.030Z,14.30
2019-04-03T05:36:37.870Z,14.40
2019-04-03T05:39:08.231Z,14.50
2019-04-03T05:41:37.085Z,14.50
2019-04-03T05:44:05.916Z,14.50
2019-04-03T05:46:36.521Z,14.60
2019-04-03T05:49:05.239Z,14.70
2019-04-03T05:51:34.096Z,14.70
2019-04-03T05:54:03.142Z,14.70
2019-04-03T05:56:32.011Z,14.80
2019-04-03T05:59:02.634Z,14.90
2019-04-03T06:01:31.375Z,15.00
2019-04-03T06:04:00.167Z,15.00
2019-04-03T06:06:29.279Z,15.00
2019-04-03T06:08:58.231Z,15.00
2019-04-03T06:11:27.006Z,15.00
2019-04-03T06:13:55.870Z,15.00
2019-04-03T06:16:25.034Z,15.00
2019-04-03T06:18:54.224Z,14.90
2019-04-03T06:21:23.124Z,15.00
2019-04-03T06:23:52.691Z,15.00
2019-04-03T06:26:21.966Z,15.10
2019-04-03T06:28:50.815Z,15.00
2019-04-03T06:31:19.655Z,15.10
2019-04-03T06:33:51.041Z,15.50
2019-04-03T06:36:19.247Z,16.20
2019-04-03T06:38:48.281Z,17.30
2019-04-03T06:41:17.176Z,18.10
2019-04-03T06:43:49.099Z,18.60
2019-04-03T06:46:16.547Z,19.00
2019-04-03T06:48:45.417Z,19.60
2019-04-03T06:51:16.724Z,20.00
2019-04-03T06:53:44.764Z,20.20
2019-04-03T06:56:13.667Z,20.60
2019-04-03T06:58:44.375Z,20.70
2019-04-03T07:01:13.069Z,20.80
2019-04-03T07:03:42.254Z,20.90
2019-04-03T07:06:11.506Z,20.80
2019-04-03T07:08:41.676Z,20.30
2019-04-03T07:11:22.333Z,20.60
2019-04-03T07:13:41.015Z,20.30
2019-04-03T07:16:09.865Z,20.10
2019-04-03T07:18:38.713Z,20.30
2019-04-03T07:21:07.575Z,20.80
2019-04-03T07:23:36.406Z,21.70
2019-04-03T07:26:05.625Z,22.60
2019-04-03T07:28:34.804Z,23.60
2019-04-03T07:31:03.679Z,24.20
2019-04-03T07:33:32.508Z,24.60
2019-04-03T07:36:01.573Z,23.80
2019-04-03T07:38:30.504Z,23.00
2019-04-03T07:40:59.616Z,22.20
2019-04-03T07:43:28.792Z,21.90
2019-04-03T07:45:57.681Z,22.70
2019-04-03T07:48:26.555Z,23.60
2019-04-03T07:50:55.388Z,24.10
2019-04-03T07:53:24.252Z,24.80
2019-04-03T07:55:55.034Z,25.20
2019-04-03T07:58:25.316Z,25.70
2019-04-03T08:00:54.094Z,26.30
2019-04-03T08:03:23.211Z,26.70
2019-04-03T08:05:55.145Z,25.90
2019-04-03T08:08:22.706Z,25.70
2019-04-03T08:10:51.561Z,26.50
2019-04-03T08:13:20.423Z,26.10
2019-04-03T08:15:49.148Z,26.00
2019-04-03T08:18:20.661Z,26.40
2019-04-03T08:20:48.733Z,26.70
2019-04-03T08:23:17.892Z,27.20
2019-04-03T08:25:48.454Z,27.10
2019-04-03T08:28:17.230Z,27.10
2019-04-03T08:30:46.096Z,27.20
2019-04-03T08:33:18.095Z,27.20
2019-04-03T08:35:45.426Z,26.70
2019-04-03T08:38:14.385Z,26.70
2019-04-03T08:40:43.191Z,26.80
2019-04-03T08:43:12.012Z,26.80
2019-04-03T08:45:40.879Z,27.30
2019-04-03T08:48:09.706Z,27.50
2019-04-03T08:50:38.694Z,27.50
2019-04-03T08:53:08.765Z,27.90
2019-04-03T08:55:37.908Z,27.50
2019-04-03T08:58:06.893Z,25.80
2019-04-03T09:00:36.043Z,25.80
2019-04-03T09:03:04.944Z,26.40
2019-04-03T09:05:33.992Z,26.30
2019-04-03T09:08:03.198Z,26.60
2019-04-03T09:10:35.833Z,26.80
2019-04-03T09:13:15.354Z,27.00
2019-04-03T09:15:33.066Z,27.90
2019-04-03T09:18:01.904Z,28.20
2019-04-03T09:20:30.741Z,29.20
2019-04-03T09:22:59.838Z,28.00
2019-04-03T09:25:31.214Z,25.20
2019-04-03T09:27:59.339Z,22.90
2019-04-03T09:30:30.035Z,22.00
2019-04-03T09:32:59.938Z,21.70
2019-04-03T09:35:32.145Z,21.30
2019-04-03T09:38:00.095Z,20.80
2019-04-03T09:40:29.471Z,19.90
2019-04-03T09:42:58.554Z,19.60
2019-04-03T09:45:28.207Z,19.30
2019-04-03T09:47:57.767Z,19.30
2019-04-03T09:50:27.049Z,19.30
2019-04-03T09:52:56.062Z,19.10
2019-04-03T09:55:25.777Z,18.80
2019-04-03T09:57:54.525Z,18.60
2019-04-03T10:00:23.954Z,18.50
2019-04-03T10:02:53.095Z,18.30
2019-04-03T10:05:22.322Z,18.30
2019-04-03T10:07:51.537Z,18.30
2019-04-03T10:10:21.414Z,18.20
2019-04-03T10:12:53.610Z,18.40
2019-04-03T10:15:20.951Z,18.50
2019-04-03T10:17:49.809Z,18.70
2019-04-03T10:20:19.035Z,19.10
2019-04-03T10:22:47.960Z,19.30
2019-04-03T10:25:16.855Z,20.00
2019-04-03T10:27:45.686Z,20.20
2019-04-03T10:30:15.394Z,20.30
2019-04-03T10:32:44.602Z,19.90
2019-04-03T10:35:14.253Z,20.20
2019-04-03T10:37:45.618Z,20.80
2019-04-03T10:40:15.543Z,20.80
2019-04-03T10:42:44.443Z,20.00
2019-04-03T10:45:13.696Z,20.00
2019-04-03T10:47:44.332Z,20.00
2019-04-03T10:50:36.242Z,20.20
2019-04-03T10:53:03.251Z,22.00
2019-04-03T10:55:32.445Z,23.70
2019-04-03T10:58:02.487Z,24.50
2019-04-03T11:00:32.047Z,25.10
2019-04-03T11:03:00.910Z,24.30
2019-04-03T11:05:29.736Z,24.20
2019-04-03T11:07:58.587Z,24.20
2019-04-03T11:10:27.639Z,24.10
2019-04-03T11:12:56.746Z,23.60
2019-04-03T11:15:25.517Z,22.90
2019-04-03T11:17:54.382Z,22.60
2019-04-03T11:20:23.235Z,22.70
2019-04-03T11:23:04.422Z,22.70
2019-04-03T11:25:22.673Z,21.80
2019-04-03T11:27:51.863Z,21.10
2019-04-03T11:30:24.203Z,20.40
2019-04-03T11:32:52.651Z,20.10
2019-04-03T11:35:22.428Z,20.20
2019-04-03T11:37:51.766Z,20.20
2019-04-03T11:40:20.871Z,20.50
2019-04-03T11:42:49.779Z,20.80
2019-04-03T11:45:19.272Z,21.00
2019-04-03T11:47:48.394Z,21.10
2019-04-03T11:50:18.884Z,21.50
2019-04-03T11:52:47.917Z,22.20
2019-04-03T11:55:17.808Z,23.20
2019-04-03T11:57:48.651Z,23.70
2019-04-03T12:00:19.926Z,23.50
2019-04-03T12:02:49.118Z,23.00
2019-04-03T12:05:20.717Z,22.40
2019-04-03T12:07:48.652Z,21.80
2019-04-03T12:10:17.824Z,21.70
2019-04-03T12:12:47.016Z,21.40
2019-04-03T12:15:16.588Z,21.00
2019-04-03T12:17:45.583Z,20.60
2019-04-03T12:20:16.596Z,20.60
2019-04-03T12:22:45.694Z,20.70
2019-04-03T12:25:15.269Z,20.30
2019-04-03T12:27:45.976Z,20.20
2019-04-03T12:30:15.110Z,20.50
2019-04-03T12:32:48.636Z,21.10
2019-04-03T12:35:14.601Z,21.50
2019-04-03T12:37:43.643Z,21.50
2019-04-03T12:40:12.911Z,21.70
2019-04-03T12:42:42.191Z,21.90
2019-04-03T12:45:11.746Z,22.10
2019-04-03T12:47:43.680Z,22.20
2019-04-03T12:50:13.006Z,22.30
2019-04-03T12:52:44.732Z,22.00
2019-04-03T12:55:13.055Z,21.30
2019-04-03T12:57:41.958Z,20.50
2019-04-03T13:00:13.082Z,20.10
2019-04-03T13:02:42.527Z,19.90
2019-04-03T13:05:12.155Z,19.80
2019-04-03T13:07:41.519Z,19.80
2019-04-03T13:10:12.188Z,19.80
2019-04-03T13:12:41.291Z,19.60
2019-04-03T13:15:11.569Z,19.80
2019-04-03T13:17:43.241Z,19.70
2019-04-03T13:20:11.300Z,19.50
2019-04-03T13:22:42.530Z,19.60
2019-04-03T13:25:11.942Z,19.70
2019-04-03T13:27:40.992Z,19.90
2019-04-03T13:30:13.032Z,20.00
2019-04-03T13:32:41.864Z,20.20
2019-04-03T13:35:11.311Z,20.10
2019-04-03T13:37:40.306Z,20.10
2019-04-03T13:40:10.166Z,20.10
2019-04-03T13:42:38.972Z,19.90
2019-04-03T13:45:09.682Z,19.90
2019-04-03T13:47:41.521Z,19.90
2019-04-03T13:50:09.999Z,19.80
2019-04-03T13:52:43.084Z,19.70
2019-04-03T13:55:09.721Z,19.60
2019-04-03T13:57:38.766Z,19.40
2019-04-03T14:00:18.288Z,19.10
2019-04-03T14:02:40.085Z,19.00
2019-04-03T14:05:09.779Z,18.80
2019-04-03T14:07:41.695Z,18.80
2019-04-03T14:10:12.981Z,18.80
2019-04-03T14:12:44.655Z,18.80
2019-04-03T14:15:12.440Z,18.80
2019-04-03T14:17:53.450Z,18.80
2019-04-03T14:20:13.017Z,18.70
2019-04-03T14:22:42.049Z,18.70
2019-04-03T14:25:18.969Z,18.60
2019-04-03T14:27:41.760Z,18.60
2019-04-03T14:30:12.028Z,18.60
2019-04-03T14:32:44.266Z,18.60
2019-04-03T14:35:40.469Z,18.70
2019-04-03T14:38:03.210Z,18.60
2019-04-03T14:40:32.384Z,18.60
2019-04-03T14:43:01.848Z,18.50
2019-04-03T14:45:31.047Z,18.50
2019-04-03T14:48:00.012Z,18.40
2019-04-03T14:50:29.242Z,18.40
2019-04-03T14:52:58.310Z,18.30
2019-04-03T14:55:28.750Z,18.20
2019-04-03T14:57:57.733Z,18.10
2019-04-03T15:00:30.453Z,18.10
2019-04-03T15:02:57.604Z,18.00
2019-04-03T15:05:27.625Z,17.80
2019-04-03T15:07:56.470Z,17.70
2019-04-03T15:10:25.432Z,17.60
2019-04-03T15:12:54.690Z,17.60
2019-04-03T15:15:26.351Z,17.60
2019-04-03T15:17:54.309Z,17.50
2019-04-03T15:20:23.184Z,17.50
2019-04-03T15:22:52.013Z,17.50
2019-04-03T15:25:20.923Z,17.40
2019-04-03T15:27:49.772Z,17.40
2019-04-03T15:30:21.904Z,17.40
2019-04-03T15:32:52.768Z,17.50
2019-04-03T15:35:22.177Z,17.40
2019-04-03T15:37:51.201Z,17.30
2019-04-03T15:40:20.083Z,17.20
2019-04-03T15:42:49.208Z,17.10
2019-04-03T15:45:18.233Z,17.00
2019-04-03T15:47:47.756Z,16.90
2019-04-03T15:50:16.914Z,16.90
2019-04-03T15:52:48.424Z,16.90
2019-04-03T15:55:18.088Z,16.90
2019-04-03T15:57:46.906Z,16.70
2019-04-03T16:00:17.934Z,16.70
2019-04-03T16:02:47.286Z,16.70
2019-04-03T16:05:16.788Z,16.60
2019-04-03T16:07:45.988Z,16.50
2019-04-03T16:10:15.049Z,16.30
2019-04-03T16:12:45.523Z,16.00
2019-04-03T16:15:22.754Z,15.70
2019-04-03T16:17:52.890Z,15.60
2019-04-03T16:20:21.748Z,15.40
2019-04-03T16:22:53.673Z,15.40
2019-04-03T16:25:22.569Z,15.30
2019-04-03T16:27:55.557Z,15.30
2019-04-03T16:30:24.416Z,15.30
2019-04-03T16:32:57.543Z,15.30
2019-04-03T16:35:26.714Z,15.30
2019-04-03T16:37:59.089Z,15.30
2019-04-03T16:40:28.241Z,15.30
2019-04-03T16:43:00.706Z,15.40
2019-04-03T16:45:28.683Z,15.40
2019-04-03T16:48:00.895Z,15.30
2019-04-03T16:50:28.914Z,15.30
2019-04-03T16:53:00.981Z,15.30
2019-04-03T16:55:30.018Z,15.30
2019-04-03T16:58:04.533Z,15.20
2019-04-03T17:00:35.103Z,15.10
2019-04-03T17:03:07.937Z,15.10
2019-04-03T17:05:37.045Z,15.00
2019-04-03T17:08:06.470Z,15.00
2019-04-03T17:10:40.424Z,14.90
2019-04-03T17:13:09.068Z,14.90
2019-04-03T17:15:38.229Z,14.80
2019-04-03T17:18:07.361Z,14.80
2019-04-03T17:20:36.612Z,14.80
2019-04-03T17:23:06.354Z,14.80
2019-04-03T17:25:46.319Z,14.70
2019-04-03T17:28:09.366Z,14.70
2019-04-03T17:30:37.141Z,14.70
2019-04-03T17:33:06.400Z,14.70
2019-04-03T17:35:35.308Z,14.70
2019-04-03T17:38:04.593Z,14.70
2019-04-03T17:40:36.370Z,14.60
2019-04-03T17:43:04.125Z,14.60
2019-04-03T17:45:33.001Z,14.70
2019-04-03T17:48:01.843Z,14.70
2019-04-03T17:50:30.752Z,14.60
2019-04-03T17:52:59.582Z,14.60
2019-04-03T17:55:28.458Z,14.60
2019-04-03T17:57:57.358Z,14.60
2019-04-03T18:00:26.216Z,14.60
2019-04-03T18:02:55.124Z,14.60
2019-04-03T18:05:25.708Z,14.60
2019-04-03T18:07:54.521Z,14.60
2019-04-03T18:10:23.412Z,14.50
2019-04-03T18:12:52.826Z,14.40
2019-04-03T18:15:21.965Z,14.50
2019-04-03T18:17:50.861Z,14.40
2019-04-03T18:20:20.019Z,14.40
2019-04-03T18:22:50.996Z,14.50
2019-04-03T18:25:19.421Z,14.40
2019-04-03T18:27:48.270Z,14.50
2019-04-03T18:30:17.927Z,14.50
2019-04-03T18:32:46.825Z,14.50
2019-04-03T18:35:15.712Z,14.40
2019-04-03T18:37:44.571Z,14.50
2019-04-03T18:40:15.055Z,14.50
2019-04-03T18:42:44.346Z,14.50
2019-04-03T18:45:24.682Z,14.50
2019-04-03T18:47:46.461Z,14.40
2019-04-03T18:50:16.025Z,14.40
2019-04-03T18:52:44.967Z,14.40
2019-04-03T18:55:14.521Z,14.40
2019-04-03T18:57:43.768Z,14.40
2019-04-03T19:00:12.918Z,14.40
2019-04-03T19:02:41.746Z,14.20
2019-04-03T19:05:13.798Z,14.20
2019-04-03T19:07:41.435Z,14.20
2019-04-03T19:10:10.738Z,14.20
2019-04-03T19:12:43.090Z,14.20
2019-04-03T19:15:10.584Z,14.20
2019-04-03T19:17:39.485Z,14.20
2019-04-03T19:20:11.144Z,14.20
2019-04-03T19:22:39.312Z,14.20
2019-04-03T19:25:09.284Z,14.10
2019-04-03T19:27:38.113Z,14.20
2019-04-03T19:30:09.876Z,14.10
2019-04-03T19:32:38.744Z,14.10
2019-04-03T19:35:09.760Z,14.10
2019-04-03T19:37:39.063Z,14.10
2019-04-03T19:40:09.772Z,14.10
2019-04-03T19:42:38.748Z,14.10
2019-04-03T19:45:08.900Z,14.10
2019-04-03T19:47:37.778Z,14.10
2019-04-03T19:50:08.827Z,14.20
2019-04-03T19:52:41.569Z,14.20
2019-04-03T19:55:08.907Z,14.10
2019-04-03T19:57:37.808Z,14.10
2019-04-03T20:00:08.846Z,14.10
2019-04-03T20:02:40.471Z,14.20
2019-04-03T20:05:09.589Z,14.20
2019-04-03T20:07:39.189Z,14.10
2019-04-03T20:10:10.845Z,14.10
2019-04-03T20:12:40.455Z,14.10
2019-04-03T20:15:11.615Z,14.00
2019-04-03T20:17:40.517Z,13.90
2019-04-03T20:20:10.306Z,14.00
2019-04-03T20:22:42.435Z,13.90
2019-04-03T20:25:14.548Z,13.90
2019-04-03T20:27:41.464Z,14.00
2019-04-03T20:30:11.742Z,14.00
2019-04-03T20:32:41.412Z,14.00
2019-04-03T20:35:11.015Z,14.00
2019-04-03T20:37:40.614Z,14.00
2019-04-03T20:40:09.562Z,14.00
2019-04-03T20:42:40.785Z,14.00
2019-04-03T20:45:09.586Z,14.10
2019-04-03T20:47:38.479Z,14.10
2019-04-03T20:50:08.876Z,14.10
2019-04-03T20:52:37.771Z,14.10
2019-04-03T20:55:08.036Z,14.10
2019-04-03T20:57:36.929Z,14.10
2019-04-03T21:00:13.757Z,14.10
2019-04-03T21:02:42.956Z,14.10
2019-04-03T21:05:11.938Z,14.10
2019-04-03T21:07:40.828Z,14.20
2019-04-03T21:10:10.294Z,14.10
2019-04-03T21:12:39.386Z,14.10
2019-04-03T21:15:09.328Z,14.10
2019-04-03T21:17:38.660Z,14.20
2019-04-03T21:20:08.024Z,14.20
2019-04-03T21:22:36.878Z,14.20
2019-04-03T21:25:06.487Z,14.20
2019-04-03T21:27:35.340Z,14.20
2019-04-03T21:30:09.060Z,14.30
2019-04-03T21:32:37.920Z,14.30
2019-04-03T21:35:07.036Z,14.30
2019-04-03T21:37:35.891Z,14.30
2019-04-03T21:40:05.610Z,14.30
2019-04-03T21:42:35.394Z,14.20
2019-04-03T21:45:07.575Z,14.20
2019-04-03T21:47:36.888Z,14.20
2019-04-03T21:50:07.337Z,14.10
2019-04-03T21:52:36.222Z,14.10
2019-04-03T21:55:07.917Z,13.90
2019-04-03T21:57:38.382Z,13.90
2019-04-03T22:00:13.136Z,13.90
2019-04-03T22:02:40.609Z,14.00
2019-04-03T22:05:09.624Z,14.00
2019-04-03T22:07:38.542Z,14.00
2019-04-03T22:10:09.054Z,14.00
2019-04-03T22:12:38.286Z,13.90
2019-04-03T22:15:08.055Z,13.90
2019-04-03T22:17:36.875Z,13.90
2019-04-03T22:20:06.954Z,13.90
2019-04-03T22:22:35.850Z,13.80
2019-04-03T22:25:08.543Z,13.80
2019-04-03T22:27:35.783Z,13.80
2019-04-03T22:30:05.715Z,13.70
2019-04-03T22:32:34.577Z,13.70
2019-04-03T22:35:03.991Z,13.70
2019-04-03T22:37:33.229Z,13.70
2019-04-03T22:40:03.832Z,13.70
2019-04-03T22:42:32.676Z,13.70
2019-04-03T22:45:01.582Z,13.60
2019-04-03T22:47:30.454Z,13.60
2019-04-03T22:49:59.284Z,13.60
2019-04-03T22:52:28.343Z,13.70
2019-04-03T22:54:57.127Z,13.60
2019-04-03T22:57:26.001Z,13.60
2019-04-03T22:59:55.281Z,13.70
2019-04-03T23:02:24.292Z,13.70
2019-04-03T23:04:53.184Z,13.70
2019-04-03T23:07:21.996Z,13.70
2019-04-03T23:09:50.875Z,13.70
2019-04-03T23:12:19.698Z,13.60
2019-04-03T23:14:48.573Z,13.60
2019-04-03T23:17:17.408Z,13.60
2019-04-03T23:19:46.262Z,13.60
2019-04-03T23:22:15.093Z,13.60
2019-04-03T23:24:43.968Z,13.60
2019-04-03T23:27:12.794Z,13.70
2019-04-03T23:29:41.672Z,13.60
2019-04-03T23:32:10.480Z,13.60
2019-04-03T23:34:39.346Z,13.60
2019-04-03T23:37:08.190Z,13.60
2019-04-03T23:39:37.054Z,13.60
2019-04-03T23:42:06.914Z,13.60
2019-04-03T23:44:36.550Z,13.50
2019-04-03T23:47:05.377Z,13.50
2019-04-03T23:49:34.243Z,13.50
2019-04-03T23:52:03.056Z,13.50
2019-04-03T23:54:33.744Z,13.50
2019-04-03T23:57:02.398Z,13.40
2019-04-03T23:59:31.263Z,13.40
